Terminal Aerodrome Forecast
Issued by NWS

Home | Current Version | Previous Version | Text Only | Print | Product List | Glossary On
Versions: 1 2 3 4 5 6 7 8 9 10 11 12 13 14
000
FTAK31 PAJN 180500
TAFAWG
TAF
PAWG 180535Z 1806/1906 12015G25KT P6SM -SHRA BKN035 OVC045
     FM181500 12012KT P6SM VCSH BKN035 OVC070
     FM182100 12008KT P6SM VCSH SCT040 BKN080
      AMD LTD TO CLD VIS AND WIND 1806/1815=

USA.gov is the U.S. government's official web portal to all federal, state and local government web resources and services.